createdAt,value
2023-05-25T00:01:34.932Z,12.98
2023-05-25T00:04:39.906Z,12.13
2023-05-25T00:07:42.558Z,11.68
2023-05-25T00:10:44.211Z,11.02
2023-05-25T00:13:46.095Z,12.50
2023-05-25T00:16:52.056Z,11.13
2023-05-25T00:19:57.979Z,11.80
2023-05-25T00:23:02.342Z,9.98
2023-05-25T00:26:04.543Z,12.25
2023-05-25T00:29:07.250Z,8.25
2023-05-25T00:32:09.394Z,11.02
2023-05-25T00:35:12.032Z,13.25
2023-05-25T00:38:16.265Z,10.23
2023-05-25T00:41:19.087Z,13.40
2023-05-25T00:44:22.057Z,12.68
2023-05-25T00:47:25.134Z,9.95
2023-05-25T00:50:45.989Z,11.57
2023-05-25T00:53:48.126Z,12.25
2023-05-25T00:57:02.566Z,10.40
2023-05-25T01:00:11.324Z,11.68
2023-05-25T01:03:17.734Z,9.82
2023-05-25T01:06:22.692Z,9.68
2023-05-25T01:09:27.235Z,10.98
2023-05-25T01:12:31.234Z,10.77
2023-05-25T01:15:33.510Z,10.25
2023-05-25T01:18:36.128Z,16.70
2023-05-25T01:21:55.024Z,12.52
2023-05-25T01:25:02.550Z,11.48
2023-05-25T01:28:09.418Z,12.05
2023-05-25T01:31:12.394Z,9.95
2023-05-25T01:34:15.955Z,9.97
2023-05-25T01:37:20.419Z,14.00
2023-05-25T01:40:23.676Z,13.98
2023-05-25T01:43:25.565Z,12.10
2023-05-25T01:46:37.004Z,12.23
2023-05-25T01:49:52.175Z,12.98
2023-05-25T01:53:03.174Z,13.15
2023-05-25T01:56:11.620Z,11.33
2023-05-25T01:59:16.488Z,14.00
2023-05-25T02:02:19.898Z,12.80
2023-05-25T02:05:21.507Z,11.68
2023-05-25T02:08:23.837Z,10.73
2023-05-25T02:11:26.537Z,13.15
2023-05-25T02:14:29.426Z,13.57
2023-05-25T02:17:31.570Z,12.87
2023-05-25T02:20:34.437Z,11.80
2023-05-25T02:23:36.098Z,10.40
2023-05-25T02:26:41.485Z,13.15
2023-05-25T02:29:43.976Z,10.98
2023-05-25T02:32:46.174Z,12.07
2023-05-25T02:35:49.428Z,12.65
2023-05-25T02:38:52.182Z,11.53
2023-05-25T02:41:54.565Z,13.57
2023-05-25T02:44:56.218Z,13.65
2023-05-25T02:47:58.449Z,12.65
2023-05-25T02:51:00.693Z,13.55
2023-05-25T02:54:03.016Z,13.90
2023-05-25T02:57:08.359Z,13.95
2023-05-25T03:00:12.433Z,14.03
2023-05-25T03:03:14.442Z,11.82
2023-05-25T03:06:17.617Z,10.35
2023-05-25T03:09:20.902Z,10.68
2023-05-25T03:12:24.933Z,12.93
2023-05-25T03:15:27.229Z,13.27
2023-05-25T03:18:29.350Z,17.17
2023-05-25T03:21:33.114Z,12.33
2023-05-25T03:24:35.457Z,12.68
2023-05-25T03:27:40.202Z,11.70
2023-05-25T03:30:43.109Z,14.65
2023-05-25T03:33:45.660Z,14.18
2023-05-25T03:36:49.223Z,14.48
2023-05-25T03:39:52.948Z,14.10
2023-05-25T03:42:54.908Z,12.43
2023-05-25T03:45:56.723Z,12.10
2023-05-25T03:48:58.347Z,16.80
2023-05-25T03:52:01.360Z,12.32
2023-05-25T03:55:05.219Z,14.20
2023-05-25T03:58:06.886Z,14.50
2023-05-25T04:01:10.578Z,14.45
2023-05-25T04:04:12.256Z,16.23
2023-05-25T04:07:14.348Z,14.15
2023-05-25T04:10:16.205Z,14.27
2023-05-25T04:13:18.280Z,12.70
2023-05-25T04:16:21.835Z,13.10
2023-05-25T04:19:24.146Z,14.30
2023-05-25T04:22:26.601Z,14.27
2023-05-25T04:25:32.179Z,17.83
2023-05-25T04:28:34.071Z,16.45
2023-05-25T04:31:46.277Z,16.23
2023-05-25T04:34:48.648Z,14.23
2023-05-25T04:37:56.970Z,14.65
2023-05-25T04:41:02.646Z,15.07
2023-05-25T04:44:09.207Z,16.13
2023-05-25T04:47:19.750Z,15.57
2023-05-25T04:50:21.560Z,16.48
2023-05-25T04:53:23.270Z,16.60
2023-05-25T04:56:26.853Z,16.08
2023-05-25T04:59:28.516Z,17.10
2023-05-25T05:02:30.965Z,15.18
2023-05-25T05:05:35.794Z,17.20
2023-05-25T05:08:39.226Z,16.00
2023-05-25T05:11:41.526Z,16.23
2023-05-25T05:14:43.436Z,18.58
2023-05-25T05:17:45.141Z,15.88
2023-05-25T05:20:48.526Z,16.10
2023-05-25T05:23:51.852Z,16.90
2023-05-25T05:26:58.367Z,15.65
2023-05-25T05:30:06.624Z,17.73
2023-05-25T05:33:08.853Z,17.75
2023-05-25T05:36:19.387Z,16.40
2023-05-25T05:39:21.147Z,16.92
2023-05-25T05:42:23.318Z,16.30
2023-05-25T05:45:24.962Z,16.30
2023-05-25T05:48:26.704Z,18.05
2023-05-25T05:51:30.220Z,19.10
2023-05-25T05:54:32.713Z,17.98
2023-05-25T05:57:40.312Z,15.80
2023-05-25T06:00:42.351Z,16.85
2023-05-25T06:03:45.650Z,15.33
2023-05-25T06:06:47.366Z,18.35
2023-05-25T06:09:49.489Z,17.00
2023-05-25T06:12:51.759Z,18.05
2023-05-25T06:15:53.985Z,17.37
2023-05-25T06:18:59.006Z,16.75
2023-05-25T06:22:01.900Z,16.70
2023-05-25T06:25:04.648Z,15.07
2023-05-25T06:28:06.824Z,14.23
2023-05-25T06:31:08.491Z,18.38
2023-05-25T06:34:11.322Z,14.98
2023-05-25T06:37:14.890Z,17.47
2023-05-25T06:40:17.143Z,15.32
2023-05-25T06:43:21.386Z,15.85
2023-05-25T06:46:43.916Z,16.67
2023-05-25T06:49:45.696Z,14.38
2023-05-25T06:52:48.279Z,15.20
2023-05-25T06:55:50.002Z,15.50
2023-05-25T06:58:52.053Z,16.50
2023-05-25T07:01:54.122Z,18.73
2023-05-25T07:04:56.958Z,15.85
2023-05-25T07:07:59.056Z,23.70
2023-05-25T07:11:01.170Z,17.27
2023-05-25T07:14:05.266Z,14.38
2023-05-25T07:17:07.376Z,16.15
2023-05-25T07:20:13.216Z,15.95
2023-05-25T07:23:15.040Z,15.43
2023-05-25T07:26:17.166Z,17.35
2023-05-25T07:29:19.235Z,17.55
2023-05-25T07:32:21.034Z,16.40
2023-05-25T07:35:22.799Z,15.33
2023-05-25T07:38:24.939Z,18.52
2023-05-25T07:41:27.408Z,17.73
2023-05-25T07:44:30.137Z,18.05
2023-05-25T07:47:31.922Z,16.97
2023-05-25T07:50:34.427Z,17.92
2023-05-25T07:53:36.444Z,16.40
2023-05-25T07:56:39.824Z,16.67
2023-05-25T07:59:41.563Z,15.43
2023-05-25T08:02:44.090Z,16.25
2023-05-25T08:05:46.588Z,14.50
2023-05-25T08:08:49.991Z,16.60
2023-05-25T08:11:55.983Z,14.43
2023-05-25T08:15:06.182Z,14.20
2023-05-25T08:18:08.392Z,14.02
2023-05-25T08:21:10.542Z,18.05
2023-05-25T08:24:12.236Z,14.68
2023-05-25T08:27:14.646Z,15.13
2023-05-25T08:30:17.011Z,14.02
2023-05-25T08:33:18.649Z,14.27
2023-05-25T08:36:20.218Z,17.20
2023-05-25T08:39:23.939Z,13.80
2023-05-25T08:42:26.412Z,15.03
2023-05-25T08:45:35.679Z,13.95
2023-05-25T08:48:42.507Z,15.70
2023-05-25T08:51:54.699Z,13.80
2023-05-25T08:55:02.709Z,13.82
2023-05-25T08:58:32.971Z,14.73
2023-05-25T09:01:42.188Z,12.88
2023-05-25T09:04:44.990Z,13.43
2023-05-25T09:07:47.897Z,14.70
2023-05-25T09:10:52.327Z,14.50
2023-05-25T09:13:54.254Z,14.57
2023-05-25T09:16:58.292Z,15.40
2023-05-25T09:20:00.015Z,16.88
2023-05-25T09:23:03.184Z,14.35
2023-05-25T09:26:05.446Z,13.97
2023-05-25T09:29:07.088Z,13.45
2023-05-25T09:32:09.590Z,12.77
2023-05-25T09:35:13.553Z,12.02
2023-05-25T09:38:16.774Z,13.07
2023-05-25T09:41:19.910Z,12.90
2023-05-25T09:44:22.039Z,15.50
2023-05-25T09:47:24.126Z,13.50
2023-05-25T09:50:29.911Z,13.85
2023-05-25T09:53:32.134Z,12.90
2023-05-25T09:56:34.703Z,13.10
2023-05-25T09:59:36.857Z,15.10
2023-05-25T10:02:39.004Z,15.75
2023-05-25T10:05:41.254Z,14.60
2023-05-25T10:08:48.980Z,11.13
2023-05-25T10:11:52.949Z,13.37
2023-05-25T10:14:55.101Z,14.15
2023-05-25T10:17:58.851Z,15.27
2023-05-25T10:21:04.408Z,13.90
2023-05-25T10:24:14.991Z,13.93
2023-05-25T10:27:28.041Z,12.17
2023-05-25T10:30:32.793Z,13.75
2023-05-25T10:33:34.798Z,12.50
2023-05-25T10:36:38.231Z,10.82
2023-05-25T10:39:43.030Z,11.93
2023-05-25T10:42:45.589Z,12.93
2023-05-25T10:45:48.665Z,14.30
2023-05-25T10:49:00.606Z,12.13
2023-05-25T10:52:06.208Z,12.65
2023-05-25T10:55:09.310Z,12.20
2023-05-25T10:58:16.177Z,14.53
2023-05-25T11:01:18.665Z,11.45
2023-05-25T11:04:20.701Z,12.98
2023-05-25T11:07:22.824Z,13.52
2023-05-25T11:10:50.378Z,12.30
2023-05-25T11:13:55.006Z,12.20
2023-05-25T11:17:18.329Z,14.07
2023-05-25T11:20:27.640Z,12.00
2023-05-25T11:23:30.737Z,12.27
2023-05-25T11:26:33.983Z,10.73
2023-05-25T11:29:37.277Z,12.83
2023-05-25T11:32:50.735Z,12.20
2023-05-25T11:35:55.220Z,12.60
2023-05-25T11:42:05.080Z,11.45
2023-05-25T11:45:11.178Z,12.70
2023-05-25T11:48:14.752Z,11.52
2023-05-25T11:51:16.961Z,15.63
2023-05-25T11:54:40.436Z,13.98
2023-05-25T11:57:42.720Z,13.25
2023-05-25T12:00:44.599Z,14.43
2023-05-25T12:03:49.158Z,15.45
2023-05-25T12:06:50.861Z,12.60
2023-05-25T12:10:07.461Z,12.02
2023-05-25T12:13:11.339Z,13.30
2023-05-25T12:16:13.691Z,12.60
2023-05-25T12:19:16.983Z,12.15
2023-05-25T12:22:19.107Z,15.50
2023-05-25T12:25:24.450Z,14.13
2023-05-25T12:28:26.889Z,11.55
2023-05-25T12:31:31.632Z,12.10
2023-05-25T12:34:34.370Z,13.60
2023-05-25T12:37:36.651Z,12.95
2023-05-25T12:40:38.422Z,11.80
2023-05-25T12:43:43.111Z,12.48
2023-05-25T12:46:45.125Z,15.67
2023-05-25T12:49:51.276Z,11.93
2023-05-25T12:53:02.558Z,14.20
2023-05-25T12:56:04.628Z,12.40
2023-05-25T12:59:15.987Z,12.63
2023-05-25T13:02:18.171Z,12.10
2023-05-25T13:05:32.902Z,12.27
2023-05-25T13:08:34.660Z,12.40
2023-05-25T13:11:37.271Z,13.52
2023-05-25T13:14:38.879Z,12.05
2023-05-25T13:17:43.381Z,10.93
2023-05-25T13:20:49.882Z,13.13
2023-05-25T13:23:53.360Z,11.10
2023-05-25T13:26:54.987Z,10.27
2023-05-25T13:29:58.363Z,10.38
2023-05-25T13:33:00.737Z,11.43
2023-05-25T13:36:09.557Z,11.68
2023-05-25T13:39:13.717Z,11.25
2023-05-25T13:42:16.004Z,10.82
2023-05-25T13:45:18.835Z,11.27
2023-05-25T13:48:21.622Z,12.50
2023-05-25T13:51:23.546Z,12.80
2023-05-25T13:54:25.199Z,10.02
2023-05-25T13:57:27.265Z,12.52
2023-05-25T14:00:29.829Z,14.07
2023-05-25T14:03:32.294Z,10.93
2023-05-25T14:06:34.994Z,10.23
2023-05-25T14:09:36.757Z,10.10
2023-05-25T14:12:38.517Z,12.40
2023-05-25T14:15:40.683Z,10.95
2023-05-25T14:18:42.983Z,8.37
2023-05-25T14:21:45.526Z,9.57
2023-05-25T14:24:48.024Z,9.45
2023-05-25T14:27:50.142Z,8.65
2023-05-25T14:30:51.881Z,9.75
2023-05-25T14:33:53.841Z,10.23
2023-05-25T14:36:55.940Z,9.80
2023-05-25T14:39:58.120Z,9.77
2023-05-25T14:42:59.749Z,11.25
2023-05-25T14:46:01.588Z,8.30
2023-05-25T14:49:03.833Z,9.40
2023-05-25T14:52:06.236Z,9.02
2023-05-25T14:55:09.267Z,11.85
2023-05-25T14:58:11.737Z,8.20
2023-05-25T15:01:15.039Z,8.95
2023-05-25T15:04:17.685Z,8.90
2023-05-25T15:07:20.653Z,8.65
2023-05-25T15:10:22.826Z,8.63
2023-05-25T15:13:24.402Z,9.18
2023-05-25T15:19:28.750Z,10.83
2023-05-25T15:22:30.968Z,11.23
2023-05-25T15:25:35.528Z,11.73
2023-05-25T15:28:38.233Z,9.02
2023-05-25T15:31:39.924Z,12.93
2023-05-25T15:34:42.055Z,8.97
2023-05-25T15:37:44.147Z,10.55
2023-05-25T15:40:45.791Z,8.98
2023-05-25T15:43:58.854Z,9.05
2023-05-25T15:47:00.692Z,11.40
2023-05-25T15:50:02.358Z,9.83
2023-05-25T15:53:04.236Z,10.30
2023-05-25T15:56:06.484Z,11.02
2023-05-25T15:59:08.665Z,11.98
2023-05-25T16:02:10.604Z,10.52
2023-05-25T16:05:12.376Z,11.40
2023-05-25T16:08:14.354Z,14.38
2023-05-25T16:11:17.333Z,12.52
2023-05-25T16:14:18.959Z,8.70
2023-05-25T16:17:20.715Z,12.38
2023-05-25T16:20:22.905Z,9.90
2023-05-25T16:23:25.371Z,10.55
2023-05-25T16:26:27.248Z,14.02
2023-05-25T16:29:29.503Z,9.25
2023-05-25T16:32:32.670Z,10.30
2023-05-25T16:35:34.924Z,9.50
2023-05-25T16:38:36.707Z,11.30
2023-05-25T16:41:38.383Z,12.93
2023-05-25T16:44:40.002Z,10.40
2023-05-25T16:47:41.933Z,13.77
2023-05-25T16:50:43.818Z,9.90
2023-05-25T16:53:46.113Z,10.18
2023-05-25T16:56:48.189Z,13.90
2023-05-25T16:59:51.744Z,10.82
2023-05-25T17:02:55.240Z,10.15
2023-05-25T17:05:57.407Z,10.40
2023-05-25T17:09:00.938Z,9.57
2023-05-25T17:12:03.721Z,9.98
2023-05-25T17:15:05.820Z,9.63
2023-05-25T17:18:08.119Z,9.98
2023-05-25T17:21:09.842Z,9.17
2023-05-25T17:24:11.693Z,10.38
2023-05-25T17:27:13.738Z,10.23
2023-05-25T17:30:15.956Z,10.75
2023-05-25T17:33:18.045Z,8.98
2023-05-25T17:36:19.687Z,9.83
2023-05-25T17:39:21.344Z,9.95
2023-05-25T17:42:22.961Z,9.73
2023-05-25T17:45:25.611Z,9.48
2023-05-25T17:48:27.878Z,10.68
2023-05-25T17:51:30.238Z,10.20
2023-05-25T17:54:32.156Z,9.13
2023-05-25T17:57:34.223Z,8.63
2023-05-25T18:00:35.864Z,9.73
2023-05-25T18:03:37.641Z,10.75
2023-05-25T18:06:39.340Z,9.77
2023-05-25T18:09:41.017Z,12.82
2023-05-25T18:12:44.545Z,9.60
2023-05-25T18:15:46.784Z,10.95
2023-05-25T18:18:48.997Z,8.82
2023-05-25T18:21:52.668Z,10.40
2023-05-25T18:24:54.442Z,10.45
2023-05-25T18:27:56.704Z,10.38
2023-05-25T18:30:58.405Z,10.63
2023-05-25T18:34:00.364Z,10.82
2023-05-25T18:37:02.092Z,11.40
2023-05-25T18:40:04.395Z,12.13
2023-05-25T18:43:07.785Z,13.05
2023-05-25T18:46:09.973Z,10.07
2023-05-25T18:49:11.775Z,11.93
2023-05-25T18:52:14.256Z,10.23
2023-05-25T18:55:16.224Z,11.88
2023-05-25T18:58:18.856Z,12.65
2023-05-25T19:01:21.042Z,11.07
2023-05-25T19:04:22.933Z,14.68
2023-05-25T19:07:24.748Z,12.53
2023-05-25T19:10:27.479Z,14.85
2023-05-25T19:13:29.353Z,13.90
2023-05-25T19:16:31.577Z,18.65
2023-05-25T19:19:33.618Z,12.35
2023-05-25T19:22:35.785Z,10.83
2023-05-25T19:25:37.577Z,12.95
2023-05-25T19:28:39.700Z,13.50
2023-05-25T19:31:41.392Z,11.98
2023-05-25T19:34:43.044Z,10.98
2023-05-25T19:37:44.691Z,12.80
2023-05-25T19:40:46.961Z,10.43
2023-05-25T19:43:49.014Z,10.98
2023-05-25T19:46:51.217Z,10.18
2023-05-25T19:49:57.537Z,12.55
2023-05-25T19:53:01.108Z,13.93
2023-05-25T19:56:04.075Z,11.55
2023-05-25T19:59:06.251Z,12.80
2023-05-25T20:02:08.023Z,11.85
2023-05-25T20:05:11.644Z,11.82
2023-05-25T20:08:13.430Z,13.70
2023-05-25T20:11:15.222Z,11.73
2023-05-25T20:14:19.306Z,13.70
2023-05-25T20:17:22.289Z,11.18
2023-05-25T20:20:23.995Z,13.25
2023-05-25T20:23:26.111Z,13.43
2023-05-25T20:26:28.228Z,11.77
2023-05-25T20:29:31.442Z,14.07
2023-05-25T20:32:33.611Z,15.18
2023-05-25T20:35:37.841Z,14.07
2023-05-25T20:38:39.538Z,11.97
2023-05-25T20:41:41.848Z,14.73
2023-05-25T20:44:43.892Z,14.23
2023-05-25T20:47:46.108Z,12.25
2023-05-25T20:50:48.362Z,14.33
2023-05-25T20:53:50.659Z,13.77
2023-05-25T20:56:53.416Z,15.15
2023-05-25T20:59:59.569Z,15.63
2023-05-25T21:03:02.587Z,14.80
2023-05-25T21:06:05.394Z,17.97
2023-05-25T21:09:07.538Z,15.30
2023-05-25T21:12:09.553Z,17.70
2023-05-25T21:15:11.864Z,14.82
2023-05-25T21:18:13.955Z,14.68
2023-05-25T21:21:16.187Z,15.05
2023-05-25T21:24:18.352Z,14.48
2023-05-25T21:27:21.013Z,14.18
2023-05-25T21:30:24.230Z,14.95
2023-05-25T21:33:25.954Z,16.20
2023-05-25T21:36:28.005Z,17.13
2023-05-25T21:39:30.752Z,15.98
2023-05-25T21:42:32.378Z,15.60
2023-05-25T21:45:34.924Z,15.40
2023-05-25T21:48:36.838Z,15.13
2023-05-25T21:51:38.771Z,16.90
2023-05-25T21:54:41.546Z,19.98
2023-05-25T21:57:43.666Z,15.35
2023-05-25T22:00:45.825Z,13.40
2023-05-25T22:03:48.529Z,12.80
2023-05-25T22:06:51.150Z,13.85
2023-05-25T22:09:53.294Z,12.40
2023-05-25T22:12:55.130Z,12.23
2023-05-25T22:15:57.119Z,18.03
2023-05-25T22:18:59.217Z,15.65
2023-05-25T22:22:01.874Z,13.55
2023-05-25T22:25:04.900Z,12.85
2023-05-25T22:28:07.361Z,14.73
2023-05-25T22:31:09.253Z,15.80
2023-05-25T22:34:11.404Z,13.25
2023-05-25T22:37:14.103Z,17.20
2023-05-25T22:40:16.934Z,14.55
2023-05-25T22:43:18.991Z,15.95
2023-05-25T22:46:21.154Z,15.68
2023-05-25T22:49:23.279Z,13.43
2023-05-25T22:52:25.497Z,13.70
2023-05-25T22:55:27.624Z,15.40
2023-05-25T22:58:29.702Z,16.30
2023-05-25T23:01:32.116Z,16.42
2023-05-25T23:04:37.418Z,15.10
2023-05-25T23:07:39.584Z,14.55
2023-05-25T23:10:41.718Z,14.45
2023-05-25T23:13:43.849Z,15.45
2023-05-25T23:16:48.580Z,16.50
2023-05-25T23:19:50.817Z,15.73
2023-05-25T23:22:52.408Z,14.10
2023-05-25T23:25:54.101Z,16.65
2023-05-25T23:28:56.351Z,17.63
2023-05-25T23:31:58.150Z,16.83
2023-05-25T23:35:00.777Z,15.93
2023-05-25T23:38:02.954Z,17.42
2023-05-25T23:41:04.832Z,19.35
2023-05-25T23:44:07.691Z,17.30
2023-05-25T23:47:09.699Z,14.32
2023-05-25T23:50:12.351Z,13.77
2023-05-25T23:53:14.521Z,12.17
2023-05-25T23:56:17.329Z,15.30
2023-05-25T23:59:19.931Z,13.73
